createdAt,value
2018-05-24T00:01:44.053Z,21.52
2018-05-24T00:04:12.529Z,21.45
2018-05-24T00:06:40.912Z,21.31
2018-05-24T00:09:08.741Z,21.27
2018-05-24T00:11:37.146Z,21.27
2018-05-24T00:14:05.530Z,21.34
2018-05-24T00:16:33.911Z,21.45
2018-05-24T00:19:02.300Z,21.03
2018-05-24T00:21:30.842Z,21.38
2018-05-24T00:23:59.240Z,21.29
2018-05-24T00:26:27.624Z,21.18
2018-05-24T00:28:56.022Z,21.20
2018-05-24T00:31:24.493Z,21.27
2018-05-24T00:33:52.871Z,21.26
2018-05-24T00:36:21.272Z,21.30
2018-05-24T00:38:49.681Z,21.30
2018-05-24T00:41:18.062Z,21.36
2018-05-24T00:43:46.469Z,21.38
2018-05-24T00:46:14.871Z,21.44
2018-05-24T00:48:43.313Z,21.44
2018-05-24T00:51:11.693Z,21.33
2018-05-24T00:53:40.092Z,21.32
2018-05-24T00:56:08.485Z,21.33
2018-05-24T00:58:36.910Z,21.26
2018-05-24T01:01:05.321Z,21.28
2018-05-24T01:03:33.723Z,21.43
2018-05-24T01:06:02.101Z,21.40
2018-05-24T01:08:30.489Z,21.43
2018-05-24T01:10:58.877Z,21.40
2018-05-24T01:13:27.260Z,21.27
2018-05-24T01:15:55.752Z,21.26
2018-05-24T01:18:24.305Z,21.23
2018-05-24T01:20:52.731Z,21.22
2018-05-24T01:23:21.113Z,21.21
2018-05-24T01:25:49.507Z,21.26
2018-05-24T01:28:17.664Z,21.24
2018-05-24T01:30:46.064Z,21.18
2018-05-24T01:33:14.448Z,21.19
2018-05-24T01:35:42.828Z,21.21
2018-05-24T01:38:11.208Z,21.20
2018-05-24T01:40:40.011Z,21.24
2018-05-24T01:43:08.402Z,21.18
2018-05-24T01:45:36.778Z,21.18
2018-05-24T01:48:05.237Z,21.01
2018-05-24T01:50:34.352Z,20.85
2018-05-24T01:53:02.737Z,20.65
2018-05-24T01:55:31.110Z,20.58
2018-05-24T01:57:59.489Z,20.55
2018-05-24T02:00:29.248Z,20.57
2018-05-24T02:02:57.623Z,20.56
2018-05-24T02:05:28.552Z,20.49
2018-05-24T02:07:56.943Z,20.44
2018-05-24T02:10:26.691Z,20.10
2018-05-24T02:12:56.284Z,20.10
2018-05-24T02:15:24.724Z,19.35
2018-05-24T02:17:53.132Z,19.89
2018-05-24T02:20:25.930Z,19.94
2018-05-24T02:22:54.325Z,20.01
2018-05-24T02:25:24.684Z,20.03
2018-05-24T02:27:53.067Z,19.87
2018-05-24T02:30:21.465Z,18.97
2018-05-24T02:32:49.866Z,19.87
2018-05-24T02:35:18.246Z,19.89
2018-05-24T02:37:46.813Z,19.86
2018-05-24T02:40:15.239Z,18.74
2018-05-24T02:42:43.791Z,19.87
2018-05-24T02:45:16.062Z,19.85
2018-05-24T02:47:44.461Z,19.72
2018-05-24T02:50:14.885Z,19.67
2018-05-24T02:52:44.611Z,19.57
2018-05-24T02:55:15.020Z,19.47
2018-05-24T02:57:43.411Z,19.49
2018-05-24T03:00:13.940Z,18.84
2018-05-24T03:02:44.285Z,19.45
2018-05-24T03:05:13.685Z,19.38
2018-05-24T03:07:42.078Z,19.26
2018-05-24T03:10:12.712Z,19.25
2018-05-24T03:12:41.092Z,19.18
2018-05-24T03:15:09.496Z,19.07
2018-05-24T03:17:37.881Z,18.90
2018-05-24T03:20:05.732Z,18.75
2018-05-24T03:22:34.157Z,18.81
2018-05-24T03:25:02.622Z,18.79
2018-05-24T03:27:31.013Z,18.81
2018-05-24T03:29:59.399Z,18.74
2018-05-24T03:32:27.786Z,18.59
2018-05-24T03:34:56.165Z,18.88
2018-05-24T03:37:24.544Z,18.97
2018-05-24T03:39:52.914Z,19.02
2018-05-24T03:42:21.294Z,19.08
2018-05-24T03:44:49.670Z,19.11
2018-05-24T03:47:18.062Z,19.16
2018-05-24T03:49:46.455Z,19.19
2018-05-24T03:52:14.999Z,19.22
2018-05-24T03:54:43.528Z,19.23
2018-05-24T03:57:11.926Z,19.31
2018-05-24T04:02:55.631Z,19.40
2018-05-24T04:05:26.121Z,19.13
2018-05-24T04:07:54.496Z,19.35
2018-05-24T04:10:23.813Z,19.35
2018-05-24T04:12:52.214Z,19.34
2018-05-24T04:15:24.552Z,19.27
2018-05-24T04:17:52.968Z,19.35
2018-05-24T04:20:22.844Z,18.34
2018-05-24T04:22:51.245Z,19.29
2018-05-24T04:25:19.630Z,18.94
2018-05-24T04:27:48.033Z,19.19
2018-05-24T04:30:17.153Z,18.81
2018-05-24T04:32:45.546Z,19.15
2018-05-24T04:35:13.965Z,19.13
2018-05-24T04:37:42.118Z,19.15
2018-05-24T04:40:10.515Z,19.12
2018-05-24T04:42:38.980Z,19.26
2018-05-24T04:45:07.429Z,19.28
2018-05-24T04:47:35.820Z,19.28
2018-05-24T04:50:04.277Z,19.44
2018-05-24T04:52:32.660Z,19.48
2018-05-24T04:55:01.037Z,19.59
2018-05-24T04:57:29.433Z,19.73
2018-05-24T04:59:57.818Z,19.88
2018-05-24T05:02:26.240Z,19.99
2018-05-24T05:04:54.613Z,20.10
2018-05-24T05:07:22.993Z,20.13
2018-05-24T05:09:51.401Z,20.33
2018-05-24T05:12:19.809Z,20.42
2018-05-24T05:14:48.234Z,20.55
2018-05-24T05:17:16.782Z,20.60
2018-05-24T05:19:45.174Z,20.71
2018-05-24T05:22:13.546Z,20.86
2018-05-24T05:24:41.944Z,21.04
2018-05-24T05:27:10.101Z,21.15
2018-05-24T05:29:38.487Z,21.25
2018-05-24T05:32:06.877Z,21.38
2018-05-24T05:34:35.276Z,21.44
2018-05-24T05:37:03.668Z,21.54
2018-05-24T05:39:32.110Z,21.61
2018-05-24T05:42:00.527Z,21.67
2018-05-24T05:44:28.912Z,21.73
2018-05-24T05:46:57.370Z,21.77
2018-05-24T05:49:25.786Z,21.80
2018-05-24T05:51:54.266Z,21.93
2018-05-24T05:54:22.765Z,22.07
2018-05-24T05:56:50.825Z,22.10
2018-05-24T05:59:19.256Z,22.15
2018-05-24T06:01:47.696Z,22.21
2018-05-24T06:04:16.290Z,22.25
2018-05-24T06:06:44.877Z,22.33
2018-05-24T06:09:13.257Z,22.28
2018-05-24T06:11:41.657Z,22.14
2018-05-24T06:14:10.080Z,22.16
2018-05-24T06:16:38.283Z,22.31
2018-05-24T06:19:06.673Z,22.29
2018-05-24T06:21:35.144Z,22.62
2018-05-24T06:24:03.639Z,22.55
2018-05-24T06:26:32.029Z,22.64
2018-05-24T06:29:00.422Z,22.70
2018-05-24T06:31:28.817Z,22.77
2018-05-24T06:33:57.190Z,22.86
2018-05-24T06:36:25.562Z,22.94
2018-05-24T06:38:53.960Z,22.97
2018-05-24T06:41:22.353Z,23.05
2018-05-24T06:43:50.782Z,23.18
2018-05-24T06:46:19.152Z,23.24
2018-05-24T06:48:47.529Z,23.20
2018-05-24T06:51:15.911Z,23.14
2018-05-24T06:53:44.159Z,23.18
2018-05-24T06:56:12.664Z,23.24
2018-05-24T06:58:41.057Z,23.28
2018-05-24T07:01:09.453Z,23.45
2018-05-24T07:03:37.837Z,23.44
2018-05-24T07:06:06.224Z,23.53
2018-05-24T07:08:35.236Z,23.69
2018-05-24T07:11:03.852Z,23.83
2018-05-24T07:13:32.798Z,23.89
2018-05-24T07:16:01.199Z,23.84
2018-05-24T07:18:29.638Z,23.59
2018-05-24T07:20:58.166Z,23.56
2018-05-24T07:23:26.554Z,23.68
2018-05-24T07:25:54.940Z,23.73
2018-05-24T07:28:23.361Z,23.69
2018-05-24T07:30:51.758Z,23.77
2018-05-24T07:33:20.138Z,23.85
2018-05-24T07:35:48.543Z,23.97
2018-05-24T07:38:16.929Z,24.05
2018-05-24T07:40:47.215Z,24.17
2018-05-24T07:43:15.625Z,24.27
2018-05-24T07:45:44.023Z,24.33
2018-05-24T07:48:12.091Z,24.30
2018-05-24T07:50:40.652Z,24.17
2018-05-24T07:53:09.043Z,24.22
2018-05-24T07:55:37.525Z,24.30
2018-05-24T07:58:05.914Z,24.47
2018-05-24T08:00:34.317Z,24.44
2018-05-24T08:03:02.908Z,24.36
2018-05-24T08:05:31.290Z,24.41
2018-05-24T08:07:59.690Z,24.54
2018-05-24T08:10:28.103Z,24.66
2018-05-24T08:12:56.489Z,24.72
2018-05-24T08:15:24.875Z,24.59
2018-05-24T08:17:53.263Z,24.43
2018-05-24T08:20:21.723Z,24.60
2018-05-24T08:22:50.230Z,24.90
2018-05-24T08:25:18.618Z,24.77
2018-05-24T08:27:47.055Z,24.93
2018-05-24T08:30:15.689Z,24.96
2018-05-24T08:32:45.601Z,25.05
2018-05-24T08:35:15.368Z,25.01
2018-05-24T08:37:43.913Z,25.01
2018-05-24T08:40:16.691Z,25.07
2018-05-24T08:42:45.069Z,25.12
2018-05-24T08:45:13.470Z,24.66
2018-05-24T08:47:41.854Z,25.40
2018-05-24T08:50:10.299Z,25.09
2018-05-24T08:52:38.686Z,25.50
2018-05-24T08:55:07.117Z,25.48
2018-05-24T08:57:35.525Z,25.62
2018-05-24T09:00:03.662Z,25.75
2018-05-24T09:02:32.052Z,25.90
2018-05-24T09:05:00.419Z,26.12
2018-05-24T09:07:28.801Z,26.37
2018-05-24T09:09:57.188Z,26.40
2018-05-24T09:12:25.570Z,26.42
2018-05-24T09:14:53.957Z,26.54
2018-05-24T09:17:22.359Z,26.56
2018-05-24T09:19:50.741Z,26.75
2018-05-24T09:22:19.123Z,26.93
2018-05-24T09:24:47.526Z,26.92
2018-05-24T09:27:15.904Z,26.81
2018-05-24T09:29:44.300Z,26.84
2018-05-24T09:32:12.706Z,26.99
2018-05-24T09:34:41.135Z,27.15
2018-05-24T09:37:09.530Z,27.37
2018-05-24T09:39:37.912Z,27.54
2018-05-24T09:42:06.316Z,27.62
2018-05-24T09:44:34.876Z,27.64
2018-05-24T09:47:03.263Z,27.55
2018-05-24T09:49:31.645Z,27.41
2018-05-24T09:52:00.058Z,26.99
2018-05-24T09:54:28.445Z,27.21
2018-05-24T09:56:56.853Z,27.13
2018-05-24T09:59:25.250Z,27.04
2018-05-24T10:01:53.645Z,27.07
2018-05-24T10:04:22.026Z,27.19
2018-05-24T10:06:50.409Z,27.24
2018-05-24T10:09:18.793Z,27.21
2018-05-24T10:11:47.197Z,27.36
2018-05-24T10:14:15.578Z,27.33
2018-05-24T10:16:43.971Z,27.44
2018-05-24T10:19:12.356Z,27.56
2018-05-24T10:21:40.749Z,27.45
2018-05-24T10:24:09.189Z,27.57
2018-05-24T10:26:37.593Z,27.72
2018-05-24T10:29:05.966Z,27.78
2018-05-24T10:31:34.370Z,28.00
2018-05-24T10:34:02.769Z,28.31
2018-05-24T10:36:31.153Z,28.28
2018-05-24T10:38:59.574Z,28.38
2018-05-24T10:41:27.978Z,28.23
2018-05-24T10:43:56.370Z,28.16
2018-05-24T10:46:24.761Z,28.46
2018-05-24T10:48:53.141Z,28.65
2018-05-24T10:51:21.597Z,28.77
2018-05-24T10:53:50.149Z,28.54
2018-05-24T10:56:18.524Z,28.32
2018-05-24T10:58:46.929Z,28.47
2018-05-24T11:01:15.319Z,28.58
2018-05-24T11:03:43.721Z,28.57
2018-05-24T11:06:12.133Z,28.50
2018-05-24T11:08:40.598Z,28.40
2018-05-24T11:11:08.756Z,28.41
2018-05-24T11:13:37.136Z,28.26
2018-05-24T11:16:05.513Z,28.23
2018-05-24T11:18:33.898Z,28.19
2018-05-24T11:21:02.273Z,28.22
2018-05-24T11:23:30.646Z,28.17
2018-05-24T11:25:59.029Z,27.85
2018-05-24T11:28:27.414Z,27.80
2018-05-24T11:30:55.805Z,27.65
2018-05-24T11:33:24.176Z,27.53
2018-05-24T11:35:52.553Z,27.48
2018-05-24T11:38:20.931Z,27.45
2018-05-24T11:40:49.306Z,27.42
2018-05-24T11:43:17.712Z,27.42
2018-05-24T11:45:46.251Z,27.41
2018-05-24T11:48:14.655Z,27.26
2018-05-24T11:50:43.047Z,27.23
2018-05-24T11:53:11.447Z,27.25
2018-05-24T11:55:39.899Z,27.28
2018-05-24T11:58:08.285Z,27.30
2018-05-24T12:00:36.690Z,27.41
2018-05-24T12:03:05.068Z,27.54
2018-05-24T12:05:33.452Z,27.57
2018-05-24T12:08:01.828Z,27.52
2018-05-24T12:10:30.204Z,27.39
2018-05-24T12:12:58.581Z,27.35
2018-05-24T12:15:27.184Z,26.87
2018-05-24T12:17:55.585Z,27.15
2018-05-24T12:20:23.974Z,27.06
2018-05-24T12:22:52.349Z,26.98
2018-05-24T12:25:20.737Z,26.99
2018-05-24T12:27:49.114Z,26.85
2018-05-24T12:30:17.695Z,26.51
2018-05-24T12:32:46.074Z,26.77
2018-05-24T12:35:14.521Z,26.49
2018-05-24T12:37:43.049Z,26.76
2018-05-24T12:40:12.522Z,25.91
2018-05-24T12:42:40.960Z,26.78
2018-05-24T12:45:09.433Z,26.63
2018-05-24T12:47:37.848Z,26.68
2018-05-24T12:50:06.235Z,26.41
2018-05-24T12:52:34.626Z,26.49
2018-05-24T12:55:03.028Z,26.55
2018-05-24T12:57:31.403Z,26.47
2018-05-24T12:59:59.804Z,25.86
2018-05-24T13:02:28.188Z,25.26
2018-05-24T13:04:56.576Z,24.68
2018-05-24T13:07:24.971Z,24.50
2018-05-24T13:09:53.415Z,24.21
2018-05-24T13:12:21.977Z,23.66
2018-05-24T13:14:50.369Z,23.29
2018-05-24T13:17:18.800Z,23.07
2018-05-24T13:19:47.203Z,22.99
2018-05-24T13:22:15.584Z,22.67
2018-05-24T13:24:43.957Z,22.28
2018-05-24T13:27:12.353Z,21.93
2018-05-24T13:29:40.850Z,21.63
2018-05-24T13:32:09.331Z,21.51
2018-05-24T13:34:37.858Z,21.41
2018-05-24T13:37:06.331Z,21.33
2018-05-24T13:39:34.756Z,21.37
2018-05-24T13:42:03.221Z,21.35
2018-05-24T13:44:31.638Z,21.35
2018-05-24T13:47:00.029Z,21.31
2018-05-24T13:49:28.409Z,21.35
2018-05-24T13:51:56.823Z,21.30
2018-05-24T13:54:25.446Z,21.14
2018-05-24T13:56:53.966Z,21.10
2018-05-24T13:59:22.370Z,20.97
2018-05-24T14:01:50.808Z,20.97
2018-05-24T14:04:19.368Z,20.96
2018-05-24T14:06:47.789Z,21.04
2018-05-24T14:09:16.184Z,21.13
2018-05-24T14:11:44.867Z,21.14
2018-05-24T14:14:13.290Z,21.28
2018-05-24T14:16:41.712Z,20.94
2018-05-24T14:19:10.109Z,21.18
2018-05-24T14:21:38.497Z,21.26
2018-05-24T14:24:06.883Z,21.51
2018-05-24T14:26:35.261Z,21.64
2018-05-24T14:29:03.667Z,21.77
2018-05-24T14:31:32.031Z,21.94
2018-05-24T14:34:00.452Z,21.89
2018-05-24T14:36:28.828Z,22.04
2018-05-24T14:38:57.241Z,21.93
2018-05-24T14:41:26.789Z,21.91
2018-05-24T14:43:55.465Z,22.03
2018-05-24T14:46:23.857Z,21.88
2018-05-24T14:48:52.298Z,21.93
2018-05-24T14:51:20.673Z,22.01
2018-05-24T14:53:49.161Z,22.04
2018-05-24T14:56:17.578Z,22.13
2018-05-24T14:58:45.960Z,22.28
2018-05-24T15:01:14.400Z,22.42
2018-05-24T15:03:42.799Z,22.47
2018-05-24T15:06:11.212Z,22.43
2018-05-24T15:08:39.617Z,22.65
2018-05-24T15:11:08.233Z,22.74
2018-05-24T15:13:47.637Z,22.71
2018-05-24T15:16:16.043Z,22.84
2018-05-24T15:18:44.428Z,23.00
2018-05-24T15:21:12.818Z,23.01
2018-05-24T15:23:41.193Z,23.21
2018-05-24T15:26:09.590Z,23.25
2018-05-24T15:28:38.019Z,23.33
2018-05-24T15:31:06.428Z,23.53
2018-05-24T15:33:34.817Z,23.63
2018-05-24T15:36:03.234Z,23.88
2018-05-24T15:38:31.629Z,23.93
2018-05-24T15:41:00.014Z,23.97
2018-05-24T15:43:28.608Z,24.03
2018-05-24T15:45:57.178Z,24.10
2018-05-24T15:48:25.640Z,24.20
2018-05-24T15:50:54.021Z,24.12
2018-05-24T15:53:22.441Z,24.22
2018-05-24T15:55:50.862Z,24.30
2018-05-24T15:58:19.239Z,24.40
2018-05-24T16:00:47.623Z,24.36
2018-05-24T16:03:16.007Z,24.47
2018-05-24T16:05:44.408Z,24.51
2018-05-24T16:08:12.793Z,24.52
2018-05-24T16:10:41.167Z,24.42
2018-05-24T16:13:09.564Z,24.46
2018-05-24T16:15:37.966Z,24.37
2018-05-24T16:18:06.365Z,24.25
2018-05-24T16:20:34.764Z,24.11
2018-05-24T16:23:03.161Z,24.04
2018-05-24T16:25:31.541Z,24.02
2018-05-24T16:27:59.955Z,23.98
2018-05-24T16:30:28.367Z,23.96
2018-05-24T16:32:56.767Z,23.90
2018-05-24T16:35:25.158Z,23.67
2018-05-24T16:37:53.542Z,23.61
2018-05-24T16:40:21.916Z,23.44
2018-05-24T16:42:50.319Z,23.35
2018-05-24T16:45:18.736Z,22.67
2018-05-24T16:47:47.112Z,23.33
2018-05-24T16:50:15.602Z,23.40
2018-05-24T16:52:43.973Z,23.40
2018-05-24T16:55:12.354Z,23.35
2018-05-24T16:57:40.753Z,23.27
2018-05-24T17:00:08.950Z,23.23
2018-05-24T17:02:37.331Z,23.23
2018-05-24T17:05:05.726Z,23.18
2018-05-24T17:07:34.184Z,23.27
2018-05-24T17:10:02.629Z,23.27
2018-05-24T17:12:31.256Z,23.27
2018-05-24T17:14:59.809Z,23.25
2018-05-24T17:17:28.205Z,23.15
2018-05-24T17:19:56.629Z,23.27
2018-05-24T17:22:25.021Z,23.35
2018-05-24T17:24:53.410Z,23.44
2018-05-24T17:27:21.788Z,23.47
2018-05-24T17:29:50.353Z,23.40
2018-05-24T17:32:18.743Z,23.32
2018-05-24T17:34:47.156Z,23.24
2018-05-24T17:37:15.545Z,23.13
2018-05-24T17:39:43.961Z,23.10
2018-05-24T17:42:12.343Z,23.19
2018-05-24T17:44:40.932Z,23.14
2018-05-24T17:47:09.336Z,22.99
2018-05-24T17:49:37.800Z,22.94
2018-05-24T17:52:06.192Z,23.04
2018-05-24T17:54:34.568Z,23.00
2018-05-24T17:57:03.036Z,22.86
2018-05-24T17:59:31.629Z,22.74
2018-05-24T18:02:00.019Z,22.55
2018-05-24T18:04:28.422Z,22.55
2018-05-24T18:06:56.809Z,22.37
2018-05-24T18:09:26.173Z,22.44
2018-05-24T18:11:54.762Z,22.18
2018-05-24T18:14:23.150Z,22.14
2018-05-24T18:16:51.541Z,22.01
2018-05-24T18:19:19.942Z,21.98
2018-05-24T18:21:48.341Z,21.98
2018-05-24T18:24:16.768Z,21.83
2018-05-24T18:26:45.238Z,22.00
2018-05-24T18:29:13.608Z,21.95
2018-05-24T18:31:42.001Z,21.94
2018-05-24T18:34:10.558Z,21.86
2018-05-24T18:36:38.756Z,21.96
2018-05-24T18:39:06.881Z,21.97
2018-05-24T18:41:35.278Z,21.91
2018-05-24T18:44:03.755Z,21.98
2018-05-24T18:46:32.163Z,21.98
2018-05-24T18:49:00.558Z,21.98
2018-05-24T18:51:28.970Z,21.99
2018-05-24T18:53:57.345Z,22.02
2018-05-24T18:56:25.772Z,21.94
2018-05-24T18:58:54.300Z,21.89
2018-05-24T19:01:22.686Z,21.72
2018-05-24T19:03:51.357Z,21.82
2018-05-24T19:06:19.734Z,21.77
2018-05-24T19:08:48.652Z,21.88
2018-05-24T19:11:17.125Z,21.82
2018-05-24T19:13:45.570Z,21.86
2018-05-24T19:16:14.977Z,21.78
2018-05-24T19:18:43.429Z,21.62
2018-05-24T19:21:11.878Z,21.57
2018-05-24T19:23:40.295Z,21.54
2018-05-24T19:26:08.693Z,21.53
2018-05-24T19:28:37.122Z,21.45
2018-05-24T19:31:05.552Z,21.42
2018-05-24T19:33:33.941Z,21.30
2018-05-24T19:36:02.335Z,21.29
2018-05-24T19:38:30.739Z,21.18
2018-05-24T19:40:59.215Z,21.15
2018-05-24T19:43:27.736Z,21.07
2018-05-24T19:45:56.113Z,20.94
2018-05-24T19:48:24.516Z,20.86
2018-05-24T19:50:53.010Z,20.85
2018-05-24T19:53:21.514Z,20.82
2018-05-24T19:55:50.049Z,20.74
2018-05-24T19:58:18.578Z,20.59
2018-05-24T20:00:47.042Z,20.49
2018-05-24T20:03:15.830Z,20.43
2018-05-24T20:05:44.223Z,20.50
2018-05-24T20:08:12.697Z,20.48
2018-05-24T20:10:41.169Z,20.56
2018-05-24T20:13:09.579Z,20.28
2018-05-24T20:15:37.980Z,20.56
2018-05-24T20:18:06.408Z,20.59
2018-05-24T20:20:34.814Z,20.65
2018-05-24T20:23:03.372Z,20.68
2018-05-24T20:25:31.844Z,20.68
2018-05-24T20:28:00.227Z,20.63
2018-05-24T20:30:28.609Z,20.58
2018-05-24T20:32:57.076Z,20.56
2018-05-24T20:35:25.726Z,20.50
2018-05-24T20:37:54.500Z,20.53
2018-05-24T20:40:26.214Z,20.33
2018-05-24T20:42:54.617Z,20.57
2018-05-24T20:45:23.830Z,20.56
2018-05-24T20:47:52.436Z,20.46
2018-05-24T20:50:20.812Z,20.39
2018-05-24T20:52:49.362Z,20.39
2018-05-24T20:55:20.622Z,20.42
2018-05-24T20:57:49.534Z,20.46
2018-05-24T21:00:23.667Z,20.49
2018-05-24T21:02:52.123Z,20.48
2018-05-24T21:05:23.613Z,20.17
2018-05-24T21:07:51.993Z,20.19
2018-05-24T21:10:24.178Z,20.45
2018-05-24T21:12:52.609Z,20.38
2018-05-24T21:15:21.988Z,20.28
2018-05-24T21:17:51.365Z,20.27
2018-05-24T21:20:21.932Z,20.29
2018-05-24T21:22:50.335Z,20.28
2018-05-24T21:25:19.954Z,20.02
2018-05-24T21:27:48.333Z,20.30
2018-05-24T21:30:21.288Z,20.02
2018-05-24T21:32:50.371Z,20.02
2018-05-24T21:35:21.500Z,20.02
2018-05-24T21:37:49.937Z,20.05
2018-05-24T21:40:26.237Z,19.53
2018-05-24T21:42:54.651Z,20.06
2018-05-24T21:45:26.969Z,19.95
2018-05-24T21:47:55.361Z,19.81
2018-05-24T21:50:23.756Z,19.77
2018-05-24T21:52:52.133Z,19.82
2018-05-24T21:55:22.293Z,19.88
2018-05-24T21:57:50.685Z,19.89
2018-05-24T22:00:23.472Z,19.85
2018-05-24T22:02:51.858Z,19.83
2018-05-24T22:05:23.001Z,19.77
2018-05-24T22:07:51.446Z,19.81
2018-05-24T22:10:19.859Z,19.68
2018-05-24T22:12:48.367Z,19.67
2018-05-24T22:15:18.350Z,19.69
2018-05-24T22:17:46.733Z,19.67
2018-05-24T22:20:17.146Z,19.58
2018-05-24T22:22:45.595Z,19.53
2018-05-24T22:25:17.356Z,19.52
2018-05-24T22:27:45.749Z,19.52
2018-05-24T22:30:18.705Z,19.58
2018-05-24T22:32:47.167Z,19.64
2018-05-24T22:35:16.929Z,19.56
2018-05-24T22:37:46.210Z,19.58
2018-05-24T22:40:14.645Z,19.59
2018-05-24T22:42:43.224Z,19.54
2018-05-24T22:45:14.448Z,19.50
2018-05-24T22:47:43.751Z,19.54
2018-05-24T22:50:14.201Z,18.90
2018-05-24T22:52:42.671Z,19.41
2018-05-24T22:55:11.071Z,19.31
2018-05-24T22:57:39.501Z,19.30
2018-05-24T23:00:08.099Z,19.41
2018-05-24T23:02:36.511Z,19.45
2018-05-24T23:05:05.003Z,19.48
2018-05-24T23:07:33.359Z,19.44
2018-05-24T23:10:01.742Z,19.41
2018-05-24T23:12:30.124Z,19.31
2018-05-24T23:14:58.521Z,19.35
2018-05-24T23:17:26.897Z,19.39
2018-05-24T23:19:55.286Z,19.29
2018-05-24T23:22:34.786Z,19.15
2018-05-24T23:25:03.178Z,19.23
2018-05-24T23:27:31.616Z,19.17
2018-05-24T23:30:00.016Z,19.03
2018-05-24T23:32:28.453Z,18.98
2018-05-24T23:34:56.847Z,18.95
2018-05-24T23:37:25.227Z,18.91
2018-05-24T23:39:53.633Z,18.84
2018-05-24T23:42:22.026Z,18.84
2018-05-24T23:44:50.421Z,18.87
2018-05-24T23:47:18.828Z,18.84
2018-05-24T23:49:47.225Z,18.92
2018-05-24T23:52:15.621Z,18.84
2018-05-24T23:54:44.022Z,18.80
2018-05-24T23:57:12.432Z,18.85
2018-05-24T23:59:40.809Z,18.81
